createdAt,value
2022-08-26T00:00:50.033Z,20.20
2022-08-26T00:03:17.462Z,23.75
2022-08-26T00:05:44.789Z,25.20
2022-08-26T00:08:13.524Z,26.77
2022-08-26T00:10:40.260Z,25.08
2022-08-26T00:13:06.825Z,26.75
2022-08-26T00:15:35.029Z,29.10
2022-08-26T00:18:01.587Z,30.38
2022-08-26T00:20:29.668Z,30.60
2022-08-26T00:22:57.325Z,32.10
2022-08-26T00:25:23.986Z,31.20
2022-08-26T00:27:50.546Z,31.10
2022-08-26T00:30:22.952Z,32.80
2022-08-26T00:32:50.744Z,34.10
2022-08-26T00:35:17.260Z,34.60
2022-08-26T00:37:43.728Z,34.63
2022-08-26T00:40:13.241Z,36.10
2022-08-26T00:42:39.624Z,36.33
2022-08-26T00:45:12.668Z,34.67
2022-08-26T00:47:47.214Z,34.38
2022-08-26T00:50:16.435Z,38.08
2022-08-26T00:52:42.827Z,37.37
2022-08-26T00:55:20.228Z,37.43
2022-08-26T00:57:48.380Z,35.40
2022-08-26T01:00:16.853Z,38.33
2022-08-26T01:02:46.825Z,37.27
2022-08-26T01:05:14.156Z,36.37
2022-08-26T01:07:40.893Z,37.47
2022-08-26T01:10:10.692Z,39.60
2022-08-26T01:12:42.429Z,35.97
2022-08-26T01:15:11.579Z,38.00
2022-08-26T01:17:38.480Z,38.03
2022-08-26T01:20:11.500Z,37.37
2022-08-26T01:22:55.189Z,37.60
2022-08-26T01:25:23.429Z,35.20
2022-08-26T01:27:50.445Z,36.30
2022-08-26T01:30:17.056Z,36.43
2022-08-26T01:32:43.669Z,36.30
2022-08-26T01:35:09.992Z,34.77
2022-08-26T01:37:37.040Z,36.47
2022-08-26T01:40:06.955Z,35.67
2022-08-26T01:42:34.288Z,35.63
2022-08-26T01:45:00.713Z,35.80
2022-08-26T01:47:30.109Z,35.67
2022-08-26T01:49:58.827Z,33.80
2022-08-26T01:52:27.574Z,34.43
2022-08-26T01:54:55.428Z,35.30
2022-08-26T01:57:22.423Z,33.63
2022-08-26T01:59:50.607Z,33.27
2022-08-26T02:02:17.226Z,34.03
2022-08-26T02:04:48.591Z,32.90
2022-08-26T02:07:18.366Z,31.93
2022-08-26T02:09:44.752Z,31.23
2022-08-26T02:12:11.877Z,31.20
2022-08-26T02:14:43.773Z,32.73
2022-08-26T02:17:10.931Z,30.53
2022-08-26T02:19:39.440Z,31.37
2022-08-26T02:22:20.133Z,30.97
2022-08-26T02:24:49.584Z,30.17
2022-08-26T02:27:23.719Z,31.90
2022-08-26T02:29:55.504Z,31.07
2022-08-26T02:32:21.973Z,32.27
2022-08-26T02:34:49.637Z,29.70
2022-08-26T02:37:17.716Z,31.83
2022-08-26T02:39:44.237Z,30.33
2022-08-26T02:42:10.610Z,28.23
2022-08-26T02:44:37.050Z,29.80
2022-08-26T02:47:04.280Z,28.77
2022-08-26T02:49:31.589Z,27.80
2022-08-26T02:52:00.831Z,28.70
2022-08-26T02:54:28.373Z,28.00
2022-08-26T02:56:56.004Z,29.77
2022-08-26T02:59:24.460Z,29.10
2022-08-26T03:01:51.356Z,29.37
2022-08-26T03:04:17.695Z,29.50
2022-08-26T03:06:52.734Z,28.23
2022-08-26T03:09:19.572Z,30.07
2022-08-26T03:11:47.183Z,28.47
2022-08-26T03:14:13.516Z,26.60
2022-08-26T03:16:53.900Z,29.40
2022-08-26T03:19:21.344Z,29.53
2022-08-26T03:21:48.985Z,27.93
2022-08-26T03:24:17.416Z,28.53
2022-08-26T03:26:52.773Z,28.20
2022-08-26T03:29:38.396Z,28.37
2022-08-26T03:32:06.053Z,26.07
2022-08-26T03:34:32.356Z,28.23
2022-08-26T03:36:58.812Z,28.33
2022-08-26T03:39:25.449Z,27.77
2022-08-26T03:41:52.333Z,26.33
2022-08-26T03:44:19.676Z,26.73
2022-08-26T03:46:46.060Z,27.43
2022-08-26T03:49:12.688Z,25.57
2022-08-26T03:51:41.516Z,26.33
2022-08-26T03:54:08.543Z,25.13
2022-08-26T03:56:35.283Z,24.90
2022-08-26T03:59:02.212Z,25.83
2022-08-26T04:01:29.216Z,27.10
2022-08-26T04:03:57.621Z,25.63
2022-08-26T04:06:30.817Z,24.83
2022-08-26T04:09:00.260Z,24.47
2022-08-26T04:11:32.168Z,24.93
2022-08-26T04:14:01.876Z,24.20
2022-08-26T04:16:29.398Z,23.43
2022-08-26T04:18:56.492Z,24.60
2022-08-26T04:21:23.429Z,23.80
2022-08-26T04:23:50.121Z,22.20
2022-08-26T04:26:16.956Z,24.17
2022-08-26T04:28:43.253Z,22.23
2022-08-26T04:31:14.700Z,24.33
2022-08-26T04:33:42.101Z,23.53
2022-08-26T04:36:20.443Z,22.67
2022-08-26T04:38:47.354Z,22.23
2022-08-26T04:41:15.577Z,21.47
2022-08-26T04:43:43.386Z,22.53
2022-08-26T04:46:11.380Z,22.67
2022-08-26T04:48:39.533Z,21.90
2022-08-26T04:51:05.929Z,20.27
2022-08-26T04:53:32.364Z,21.80
2022-08-26T04:55:58.644Z,20.40
2022-08-26T04:58:25.275Z,20.10
2022-08-26T05:00:53.050Z,21.37
2022-08-26T05:03:20.816Z,18.73
2022-08-26T05:05:47.760Z,22.07
2022-08-26T05:08:14.930Z,20.13
2022-08-26T05:10:42.825Z,18.97
2022-08-26T05:13:11.001Z,19.37
2022-08-26T05:15:38.835Z,18.57
2022-08-26T05:18:06.100Z,18.10
2022-08-26T05:20:38.556Z,17.00
2022-08-26T05:23:05.472Z,16.27
2022-08-26T05:25:37.178Z,16.27
2022-08-26T05:28:04.484Z,16.20
2022-08-26T05:30:32.014Z,15.50
2022-08-26T05:32:58.884Z,14.33
2022-08-26T05:35:28.366Z,15.23
2022-08-26T05:37:58.607Z,16.53
2022-08-26T05:40:25.159Z,15.53
2022-08-26T05:42:53.013Z,15.03
2022-08-26T05:45:19.753Z,14.33
2022-08-26T05:47:46.214Z,15.00
2022-08-26T05:50:13.732Z,13.67
2022-08-26T05:52:40.680Z,115.03
2022-08-26T05:55:07.137Z,34.10
2022-08-26T05:57:37.449Z,13.43
2022-08-26T06:00:06.658Z,14.50
2022-08-26T06:02:33.041Z,13.63
2022-08-26T06:04:59.346Z,12.37
2022-08-26T06:07:45.619Z,12.53
2022-08-26T06:10:31.664Z,14.43
2022-08-26T06:13:00.187Z,13.63
2022-08-26T06:15:28.613Z,13.17
2022-08-26T06:17:55.057Z,13.40
2022-08-26T06:20:21.340Z,11.93
2022-08-26T06:23:20.768Z,12.33
2022-08-26T06:25:48.508Z,11.70
2022-08-26T06:28:15.252Z,11.70
2022-08-26T06:30:42.538Z,11.33
2022-08-26T06:33:09.529Z,10.67
2022-08-26T06:35:37.008Z,11.57
2022-08-26T06:38:03.791Z,11.13
2022-08-26T06:40:31.063Z,10.67
2022-08-26T06:42:57.447Z,17.30
2022-08-26T06:45:24.094Z,12.60
2022-08-26T06:47:50.630Z,11.00
2022-08-26T06:50:17.811Z,10.97
2022-08-26T06:52:44.561Z,9.97
2022-08-26T06:55:10.830Z,10.87
2022-08-26T06:57:39.737Z,10.47
2022-08-26T07:00:11.221Z,10.77
2022-08-26T07:02:39.087Z,9.60
2022-08-26T07:05:05.773Z,11.03
2022-08-26T07:07:32.063Z,12.50
2022-08-26T07:09:58.413Z,19.73
2022-08-26T07:12:25.953Z,9.80
2022-08-26T07:14:52.933Z,9.53
2022-08-26T07:17:20.478Z,9.93
2022-08-26T07:19:47.087Z,10.47
2022-08-26T07:22:13.447Z,11.07
2022-08-26T07:24:42.866Z,9.50
2022-08-26T07:27:12.112Z,9.20
2022-08-26T07:29:39.413Z,9.77
2022-08-26T07:32:06.415Z,15.83
2022-08-26T07:34:33.421Z,10.00
2022-08-26T07:37:00.288Z,8.80
2022-08-26T07:39:27.844Z,9.10
2022-08-26T07:41:54.420Z,9.73
2022-08-26T07:44:20.937Z,8.73
2022-08-26T07:46:53.285Z,8.90
2022-08-26T07:49:20.645Z,9.40
2022-08-26T07:51:47.133Z,8.67
2022-08-26T07:54:13.432Z,9.93
2022-08-26T07:56:39.762Z,9.50
2022-08-26T07:59:13.610Z,9.10
2022-08-26T08:01:40.788Z,9.70
2022-08-26T08:04:11.580Z,9.33
2022-08-26T08:06:40.741Z,9.80
2022-08-26T08:09:10.517Z,9.43
2022-08-26T08:11:37.117Z,9.37
2022-08-26T08:14:03.471Z,10.60
2022-08-26T08:16:36.335Z,9.03
2022-08-26T08:19:04.531Z,10.93
2022-08-26T08:21:31.173Z,10.43
2022-08-26T08:23:57.488Z,10.83
2022-08-26T08:26:25.641Z,10.27
2022-08-26T08:28:55.982Z,10.47
2022-08-26T08:31:44.966Z,12.07
2022-08-26T08:34:09.960Z,10.20
2022-08-26T08:36:36.461Z,10.87
2022-08-26T08:39:02.992Z,10.77
2022-08-26T08:41:35.176Z,11.17
2022-08-26T08:44:02.399Z,9.30
2022-08-26T08:46:30.026Z,9.40
2022-08-26T08:48:59.751Z,8.70
2022-08-26T08:51:41.545Z,9.93
2022-08-26T08:54:10.379Z,8.98
2022-08-26T08:56:55.314Z,8.30
2022-08-26T08:59:26.189Z,7.72
2022-08-26T09:01:54.178Z,7.93
2022-08-26T09:04:38.946Z,7.20
2022-08-26T09:07:08.633Z,7.38
2022-08-26T09:09:37.967Z,13.35
2022-08-26T09:12:06.489Z,7.85
2022-08-26T09:14:33.087Z,7.60
2022-08-26T09:17:03.944Z,6.25
2022-08-26T09:19:42.739Z,7.13
2022-08-26T09:22:09.650Z,6.88
2022-08-26T09:24:41.881Z,6.55
2022-08-26T09:27:34.392Z,6.47
2022-08-26T09:30:04.221Z,7.60
2022-08-26T09:32:32.022Z,6.38
2022-08-26T09:35:00.184Z,6.97
2022-08-26T09:37:35.405Z,6.43
2022-08-26T09:40:18.969Z,6.82
2022-08-26T09:42:46.732Z,6.97
2022-08-26T09:45:14.760Z,6.20
2022-08-26T09:47:46.665Z,6.20
2022-08-26T09:50:35.959Z,6.82
2022-08-26T09:53:25.186Z,6.57
2022-08-26T09:56:13.717Z,6.37
2022-08-26T09:58:41.953Z,6.00
2022-08-26T10:01:14.511Z,6.80
2022-08-26T10:03:42.179Z,7.00
2022-08-26T10:06:18.111Z,6.63
2022-08-26T10:09:09.868Z,6.10
2022-08-26T10:11:40.340Z,6.23
2022-08-26T10:14:11.441Z,7.97
2022-08-26T10:16:44.094Z,7.17
2022-08-26T10:19:13.089Z,6.67
2022-08-26T10:21:55.836Z,7.20
2022-08-26T10:24:24.210Z,7.60
2022-08-26T10:26:59.632Z,6.50
2022-08-26T10:29:29.492Z,6.60
2022-08-26T10:32:02.490Z,6.90
2022-08-26T10:34:31.255Z,8.23
2022-08-26T10:37:14.964Z,8.43
2022-08-26T10:39:57.355Z,6.80
2022-08-26T10:42:28.850Z,7.20
2022-08-26T10:44:58.733Z,7.37
2022-08-26T10:47:28.525Z,6.73
2022-08-26T10:49:58.802Z,7.00
2022-08-26T10:52:29.409Z,7.28
2022-08-26T10:55:03.127Z,7.13
2022-08-26T10:57:44.220Z,6.25
2022-08-26T11:00:38.022Z,5.50
2022-08-26T11:03:21.969Z,5.70
2022-08-26T11:06:08.999Z,5.23
2022-08-26T11:08:35.300Z,5.82
2022-08-26T11:11:02.916Z,5.30
2022-08-26T11:13:41.602Z,5.43
2022-08-26T11:16:09.112Z,5.00
2022-08-26T11:18:37.307Z,5.43
2022-08-26T11:21:24.610Z,4.90
2022-08-26T11:23:57.052Z,5.00
2022-08-26T11:26:37.584Z,4.60
2022-08-26T11:29:39.556Z,5.05
2022-08-26T11:32:05.835Z,5.37
2022-08-26T11:34:52.160Z,4.53
2022-08-26T11:39:56.989Z,5.38
2022-08-26T11:42:31.867Z,5.50
2022-08-26T11:44:59.310Z,5.20
2022-08-26T11:47:30.072Z,5.40
2022-08-26T11:50:06.731Z,5.50
2022-08-26T11:52:33.123Z,5.10
2022-08-26T11:55:02.989Z,5.10
2022-08-26T11:57:31.449Z,5.25
2022-08-26T11:59:58.327Z,4.90
2022-08-26T12:02:25.045Z,5.00
2022-08-26T12:04:53.273Z,5.35
2022-08-26T12:07:25.803Z,4.90
2022-08-26T12:09:54.578Z,4.93
2022-08-26T12:12:38.508Z,4.97
2022-08-26T12:15:06.432Z,4.40
2022-08-26T12:17:32.725Z,4.67
2022-08-26T12:19:59.003Z,4.20
2022-08-26T12:22:29.775Z,4.97
2022-08-26T12:25:00.480Z,4.80
2022-08-26T12:27:26.956Z,55.67
2022-08-26T12:30:02.594Z,5.32
2022-08-26T12:32:31.149Z,4.17
2022-08-26T12:34:58.954Z,5.05
2022-08-26T12:37:27.017Z,4.68
2022-08-26T12:39:54.357Z,4.32
2022-08-26T12:42:20.779Z,3.90
2022-08-26T12:44:53.676Z,4.13
2022-08-26T12:47:42.724Z,4.22
2022-08-26T12:50:19.025Z,3.80
2022-08-26T12:53:00.263Z,4.60
2022-08-26T12:55:32.697Z,4.45
2022-08-26T12:58:11.335Z,4.70
2022-08-26T13:00:40.104Z,4.80
2022-08-26T13:03:25.221Z,4.97
2022-08-26T13:05:51.503Z,4.15
2022-08-26T13:08:27.892Z,4.53
2022-08-26T13:11:08.437Z,4.07
2022-08-26T13:13:34.729Z,4.30
2022-08-26T13:16:01.084Z,4.40
2022-08-26T13:18:27.456Z,3.95
2022-08-26T13:20:53.772Z,4.03
2022-08-26T13:23:21.240Z,3.75
2022-08-26T13:25:47.645Z,4.00
2022-08-26T13:28:14.011Z,3.63
2022-08-26T13:30:41.572Z,3.55
2022-08-26T13:33:08.686Z,4.00
2022-08-26T13:35:38.656Z,3.95
2022-08-26T13:38:04.997Z,4.40
2022-08-26T13:40:34.744Z,3.78
2022-08-26T13:43:01.149Z,4.50
2022-08-26T13:45:27.645Z,4.55
2022-08-26T13:47:53.952Z,4.30
2022-08-26T13:50:20.240Z,4.68
2022-08-26T13:52:46.560Z,4.40
2022-08-26T13:55:12.841Z,4.73
2022-08-26T13:57:39.158Z,4.75
2022-08-26T14:00:05.908Z,4.70
2022-08-26T14:02:37.776Z,3.40
2022-08-26T14:05:04.557Z,3.08
2022-08-26T14:07:30.878Z,3.00
2022-08-26T14:09:57.656Z,2.63
2022-08-26T14:12:24.347Z,2.70
2022-08-26T14:14:50.727Z,2.72
2022-08-26T14:17:18.897Z,2.85
2022-08-26T14:19:46.137Z,2.70
2022-08-26T14:22:13.455Z,2.60
2022-08-26T14:24:39.760Z,2.60
2022-08-26T14:27:06.090Z,2.40
2022-08-26T14:29:32.411Z,2.38
2022-08-26T14:31:59.827Z,3.03
2022-08-26T14:34:26.275Z,3.00
2022-08-26T14:36:52.572Z,5.47
2022-08-26T14:39:18.877Z,4.10
2022-08-26T14:41:54.603Z,2.53
2022-08-26T14:44:21.999Z,2.83
2022-08-26T14:46:49.637Z,2.80
2022-08-26T14:49:18.181Z,3.10
2022-08-26T14:51:44.707Z,3.08
2022-08-26T14:54:11.761Z,2.90
2022-08-26T14:56:43.555Z,3.65
2022-08-26T14:59:10.365Z,3.60
2022-08-26T15:01:36.903Z,3.38
2022-08-26T15:04:03.551Z,3.20
2022-08-26T15:06:30.873Z,3.25
2022-08-26T15:08:57.818Z,2.63
2022-08-26T15:11:24.162Z,3.03
2022-08-26T15:13:50.569Z,2.85
2022-08-26T15:16:17.100Z,3.08
2022-08-26T15:18:43.456Z,3.00
2022-08-26T15:21:09.810Z,2.83
2022-08-26T15:23:39.293Z,2.83
2022-08-26T15:26:10.004Z,3.40
2022-08-26T15:28:36.356Z,3.30
2022-08-26T15:31:02.774Z,3.60
2022-08-26T15:33:29.658Z,3.55
2022-08-26T15:35:58.265Z,3.00
2022-08-26T15:38:24.541Z,2.60
2022-08-26T15:40:51.053Z,2.80
2022-08-26T15:43:28.127Z,2.72
2022-08-26T15:45:55.291Z,2.70
2022-08-26T15:48:22.075Z,2.73
2022-08-26T15:50:49.895Z,2.57
2022-08-26T15:53:16.367Z,2.80
2022-08-26T15:55:42.689Z,2.50
2022-08-26T15:58:10.308Z,2.73
2022-08-26T16:00:36.929Z,2.93
2022-08-26T16:03:03.863Z,3.00
2022-08-26T16:05:30.179Z,3.07
2022-08-26T16:07:56.483Z,3.60
2022-08-26T16:10:22.775Z,3.50
2022-08-26T16:12:49.055Z,3.77
2022-08-26T16:15:15.429Z,3.30
2022-08-26T16:17:41.749Z,3.30
2022-08-26T16:20:08.501Z,3.80
2022-08-26T16:22:34.780Z,3.50
2022-08-26T16:25:01.042Z,3.13
2022-08-26T16:27:27.339Z,3.30
2022-08-26T16:29:53.596Z,3.30
2022-08-26T16:32:19.911Z,3.63
2022-08-26T16:34:56.347Z,3.20
2022-08-26T16:37:23.159Z,3.73
2022-08-26T16:39:49.506Z,3.40
2022-08-26T16:42:15.824Z,3.80
2022-08-26T16:44:45.071Z,3.60
2022-08-26T16:47:12.230Z,3.67
2022-08-26T16:49:39.205Z,3.70
2022-08-26T16:52:05.658Z,3.33
2022-08-26T16:54:31.957Z,2.73
2022-08-26T16:56:58.248Z,2.87
2022-08-26T16:59:24.580Z,2.87
2022-08-26T17:01:50.914Z,2.90
2022-08-26T17:04:18.919Z,10.10
2022-08-26T17:06:45.646Z,3.77
2022-08-26T17:09:12.476Z,9.43
2022-08-26T17:11:38.747Z,2.13
2022-08-26T17:14:05.711Z,2.37
2022-08-26T17:16:32.080Z,2.20
2022-08-26T17:18:58.938Z,2.10
2022-08-26T17:21:25.924Z,1.93
2022-08-26T17:23:52.876Z,1.97
2022-08-26T17:26:19.219Z,2.00
2022-08-26T17:28:45.686Z,1.90
2022-08-26T17:31:13.050Z,2.10
2022-08-26T17:33:40.032Z,2.10
2022-08-26T17:36:07.322Z,2.00
2022-08-26T17:38:33.721Z,1.80
2022-08-26T17:41:00.053Z,1.93
2022-08-26T17:43:26.677Z,1.83
2022-08-26T17:46:06.809Z,2.17
2022-08-26T17:48:33.849Z,1.80
2022-08-26T17:51:00.139Z,2.00
2022-08-26T17:53:26.445Z,1.90
2022-08-26T17:55:52.776Z,1.97
2022-08-26T17:58:20.296Z,2.50
2022-08-26T18:00:50.219Z,5.27
2022-08-26T18:03:16.973Z,2.43
2022-08-26T18:05:47.070Z,2.10
2022-08-26T18:08:13.348Z,1.90
2022-08-26T18:10:40.966Z,1.67
2022-08-26T18:13:07.390Z,1.80
2022-08-26T18:15:33.796Z,1.93
2022-08-26T18:18:00.105Z,1.70
2022-08-26T18:20:26.531Z,1.77
2022-08-26T18:22:53.788Z,2.00
2022-08-26T18:25:20.340Z,1.80
2022-08-26T18:27:46.615Z,1.90
2022-08-26T18:30:16.782Z,1.83
2022-08-26T18:32:43.276Z,1.90
2022-08-26T18:35:10.308Z,1.70
2022-08-26T18:37:37.390Z,1.80
2022-08-26T18:40:05.230Z,1.70
2022-08-26T18:42:31.548Z,2.93
2022-08-26T18:44:57.902Z,6.60
2022-08-26T18:47:24.309Z,1.87
2022-08-26T18:49:51.100Z,1.60
2022-08-26T18:52:17.407Z,1.77
2022-08-26T18:54:43.765Z,1.60
2022-08-26T18:57:10.629Z,1.53
2022-08-26T18:59:36.934Z,1.80
2022-08-26T19:02:03.448Z,1.70
2022-08-26T19:04:29.814Z,1.60
2022-08-26T19:06:56.339Z,1.50
2022-08-26T19:09:22.744Z,1.97
2022-08-26T19:11:50.008Z,1.80
2022-08-26T19:14:16.819Z,1.60
2022-08-26T19:16:44.487Z,1.80
2022-08-26T19:19:11.156Z,2.20
2022-08-26T19:21:37.734Z,1.60
2022-08-26T19:24:05.956Z,1.80
2022-08-26T19:26:32.900Z,1.70
2022-08-26T19:28:59.559Z,1.30
2022-08-26T19:31:26.443Z,1.60
2022-08-26T19:33:52.892Z,1.37
2022-08-26T19:36:21.895Z,1.73
2022-08-26T19:38:48.499Z,1.90
2022-08-26T19:41:15.805Z,4.10
2022-08-26T19:43:42.434Z,3.00
2022-08-26T19:46:12.890Z,1.63
2022-08-26T19:48:39.860Z,1.60
2022-08-26T19:51:06.211Z,1.40
2022-08-26T19:53:32.538Z,1.60
2022-08-26T19:55:58.946Z,1.20
2022-08-26T19:58:25.209Z,1.30
2022-08-26T20:00:51.667Z,1.50
2022-08-26T20:03:17.991Z,1.70
2022-08-26T20:05:44.269Z,1.57
2022-08-26T20:08:20.458Z,1.50
2022-08-26T20:10:49.567Z,1.40
2022-08-26T20:13:15.924Z,1.70
2022-08-26T20:15:42.277Z,1.47
2022-08-26T20:18:28.585Z,1.50
2022-08-26T20:21:13.785Z,1.60
2022-08-26T20:23:40.126Z,1.63
2022-08-26T20:26:06.541Z,17.90
2022-08-26T20:28:34.414Z,4.37
2022-08-26T20:31:01.949Z,2.27
2022-08-26T20:33:28.237Z,1.63
2022-08-26T20:35:54.555Z,1.70
2022-08-26T20:38:21.549Z,1.87
2022-08-26T20:40:49.111Z,1.90
2022-08-26T20:43:15.385Z,1.90
2022-08-26T20:45:41.686Z,1.70
2022-08-26T20:48:08.028Z,1.80
2022-08-26T20:50:34.313Z,1.73
2022-08-26T20:53:00.630Z,1.90
2022-08-26T20:55:27.158Z,1.87
2022-08-26T20:57:53.514Z,1.90
2022-08-26T21:00:22.694Z,2.10
2022-08-26T21:02:53.380Z,1.80
2022-08-26T21:05:19.728Z,1.63
2022-08-26T21:07:46.084Z,1.70
2022-08-26T21:10:12.529Z,1.60
2022-08-26T21:12:38.814Z,1.70
2022-08-26T21:15:05.624Z,2.00
2022-08-26T21:17:32.056Z,1.80
2022-08-26T21:19:58.324Z,1.40
2022-08-26T21:22:24.955Z,1.37
2022-08-26T21:24:51.207Z,1.60
2022-08-26T21:27:26.129Z,1.60
2022-08-26T21:29:53.055Z,1.50
2022-08-26T21:32:19.374Z,1.43
2022-08-26T21:34:45.713Z,1.40
2022-08-26T21:37:15.377Z,1.80
2022-08-26T21:39:43.204Z,1.53
2022-08-26T21:42:09.505Z,1.70
2022-08-26T21:44:35.768Z,1.80
2022-08-26T21:47:03.338Z,1.83
2022-08-26T21:49:29.653Z,1.87
2022-08-26T21:51:55.930Z,2.17
2022-08-26T21:54:22.560Z,1.83
2022-08-26T21:56:49.132Z,2.20
2022-08-26T21:59:16.900Z,2.40
2022-08-26T22:01:43.221Z,2.33
2022-08-26T22:04:09.655Z,2.47
2022-08-26T22:06:40.281Z,1.83
2022-08-26T22:09:06.583Z,2.23
2022-08-26T22:11:32.953Z,2.30
2022-08-26T22:13:59.270Z,2.10
2022-08-26T22:16:26.748Z,2.13
2022-08-26T22:18:54.598Z,2.23
2022-08-26T22:21:23.665Z,2.00
2022-08-26T22:23:50.064Z,1.80
2022-08-26T22:26:20.619Z,1.90
2022-08-26T22:28:52.434Z,1.70
2022-08-26T22:31:27.958Z,1.80
2022-08-26T22:33:56.381Z,1.80
2022-08-26T22:36:28.701Z,1.70
2022-08-26T22:38:55.920Z,1.50
2022-08-26T22:41:22.333Z,1.80
2022-08-26T22:43:48.638Z,2.10
2022-08-26T22:46:19.055Z,1.50
2022-08-26T22:48:45.336Z,1.43
2022-08-26T22:51:11.955Z,1.97
2022-08-26T22:53:39.335Z,1.93
2022-08-26T22:56:08.859Z,1.57
2022-08-26T22:58:35.639Z,1.73
2022-08-26T23:01:02.227Z,2.00
2022-08-26T23:03:29.123Z,1.70
2022-08-26T23:05:55.841Z,1.50
2022-08-26T23:08:22.815Z,1.77
2022-08-26T23:10:49.149Z,1.80
2022-08-26T23:13:15.548Z,1.70
2022-08-26T23:15:42.456Z,1.83
2022-08-26T23:18:09.339Z,1.93
2022-08-26T23:20:35.897Z,1.80
2022-08-26T23:23:02.202Z,1.70
2022-08-26T23:25:29.664Z,2.10
2022-08-26T23:27:56.884Z,2.33
2022-08-26T23:30:24.668Z,2.40
2022-08-26T23:32:51.111Z,2.60
2022-08-26T23:35:21.330Z,2.57
2022-08-26T23:37:50.975Z,2.33
2022-08-26T23:40:19.312Z,2.97
2022-08-26T23:42:45.701Z,3.10
2022-08-26T23:45:12.914Z,3.73
2022-08-26T23:47:41.006Z,3.80
2022-08-26T23:50:07.785Z,5.07
2022-08-26T23:52:52.449Z,6.03
2022-08-26T23:55:18.779Z,7.87
2022-08-26T23:57:45.096Z,7.90
